Time;durP1;ratioP1;P1;durP2;ratioP2;P2;SDS_P1;SDS_P2;PMS_P1;PMS_P2;Temp;Humidity;BMP_temperature;BMP_pressure;BME280_temperature;BME280_humidity;BME280_pressure;Samples;Min_cycle;Max_cycle;Signal;HPM_P1;HPM_P2
2021/08/19 00:00:28;;;;;;;2.80;1.63;;;;;;;;;;5118681;28;20226;-63
2021/08/19 00:02:56;;;;;;;2.37;1.40;;;;;;;;;;5118415;28;20573;-63
2021/08/19 00:05:25;;;;;;;3.10;1.43;;;;;;;;;;5118277;28;20276;-63
2021/08/19 00:07:53;;;;;;;2.60;1.80;;;;;;;;;;5118588;28;20211;-63
2021/08/19 00:10:21;;;;;;;1.63;1.37;;;;;;;;;;5118447;28;20201;-64
2021/08/19 00:12:50;;;;;;;1.43;1.33;;;;;;;;;;5118126;28;20216;-64
2021/08/19 00:15:19;;;;;;;1.70;1.33;;;;;;;;;;5118206;28;20224;-64
2021/08/19 00:17:47;;;;;;;1.63;1.53;;;;;;;;;;5118363;28;20645;-64
2021/08/19 00:20:15;;;;;;;1.83;1.40;;;;;;;;;;5118101;28;20233;-63
2021/08/19 00:22:43;;;;;;;2.13;1.40;;;;;;;;;;5118356;28;20284;-63
2021/08/19 00:25:11;;;;;;;1.53;1.40;;;;;;;;;;5112620;28;20304;-62
2021/08/19 00:27:39;;;;;;;2.63;1.77;;;;;;;;;;5097427;28;20292;-62
2021/08/19 00:30:09;;;;;;;3.10;1.40;;;;;;;;;;5098006;28;20207;-63
2021/08/19 00:32:37;;;;;;;1.33;1.23;;;;;;;;;;5098018;28;20648;-64
2021/08/19 00:35:06;;;;;;;1.60;1.50;;;;;;;;;;5105131;28;20221;-64
2021/08/19 00:37:34;;;;;;;1.50;1.40;;;;;;;;;;5118203;28;20213;-64
2021/08/19 00:40:02;;;;;;;1.77;1.60;;;;;;;;;;5117999;28;20209;-64
2021/08/19 00:42:31;;;;;;;2.87;2.00;;;;;;;;;;5117576;28;20225;-64
2021/08/19 00:44:59;;;;;;;2.77;1.67;;;;;;;;;;5117933;28;20602;-64
2021/08/19 00:47:28;;;;;;;1.40;1.30;;;;;;;;;;5118110;28;20208;-64
2021/08/19 00:49:58;;;;;;;1.73;1.50;;;;;;;;;;5118293;28;20204;-63
2021/08/19 00:52:26;;;;;;;3.03;1.53;;;;;;;;;;5118149;28;20196;-64
2021/08/19 00:54:55;;;;;;;2.67;1.60;;;;;;;;;;5118232;28;20224;-64
2021/08/19 00:57:23;;;;;;;3.57;2.03;;;;;;;;;;5118152;28;20209;-64
2021/08/19 00:59:52;;;;;;;4.07;1.93;;;;;;;;;;5119713;28;20213;-64
2021/08/19 01:02:20;;;;;;;2.70;1.80;;;;;;;;;;5121902;27;20286;-64
2021/08/19 01:04:50;;;;;;;2.90;1.90;;;;;;;;;;5121848;28;20251;-64
2021/08/19 01:07:18;;;;;;;3.23;2.27;;;;;;;;;;5122074;28;20204;-64
2021/08/19 01:09:46;;;;;;;3.63;1.63;;;;;;;;;;5122103;28;20209;-64
2021/08/19 01:12:14;;;;;;;4.23;1.80;;;;;;;;;;5121854;28;20205;-64
2021/08/19 01:14:43;;;;;;;2.07;1.87;;;;;;;;;;5121781;28;20284;-64
2021/08/19 01:17:13;;;;;;;5.07;2.10;;;;;;;;;;5108097;28;20276;-64
2021/08/19 01:19:41;;;;;;;2.33;1.90;;;;;;;;;;5121546;28;20240;-64
2021/08/19 01:22:10;;;;;;;2.73;2.40;;;;;;;;;;5121463;28;20247;-64
2021/08/19 01:24:38;;;;;;;5.00;2.10;;;;;;;;;;5120473;28;20227;-64
2021/08/19 01:27:07;;;;;;;5.87;2.00;;;;;;;;;;5101322;28;20211;-64
2021/08/19 01:29:36;;;;;;;3.40;1.97;;;;;;;;;;5100648;28;20579;-64
2021/08/19 01:32:06;;;;;;;2.27;2.07;;;;;;;;;;5100989;28;20216;-64
2021/08/19 01:34:34;;;;;;;2.20;1.63;;;;;;;;;;5100740;28;20228;-64
2021/08/19 01:37:02;;;;;;;1.70;1.60;;;;;;;;;;5100824;28;20681;-64
2021/08/19 01:39:30;;;;;;;2.03;1.63;;;;;;;;;;5100794;28;20218;-64
2021/08/19 01:41:58;;;;;;;2.10;1.60;;;;;;;;;;5100690;28;20259;-64
2021/08/19 01:44:26;;;;;;;2.93;1.80;;;;;;;;;;5100701;28;20241;-64
2021/08/19 01:46:55;;;;;;;1.93;1.70;;;;;;;;;;5100491;28;20205;-64
2021/08/19 01:49:23;;;;;;;1.77;1.67;;;;;;;;;;5100432;28;20211;-64
2021/08/19 01:51:51;;;;;;;3.90;1.53;;;;;;;;;;5100847;28;20197;-64
2021/08/19 01:54:19;;;;;;;3.80;1.60;;;;;;;;;;5110428;28;20715;-64
2021/08/19 01:56:47;;;;;;;2.03;1.77;;;;;;;;;;5121026;28;20209;-64
2021/08/19 01:59:15;;;;;;;2.23;1.63;;;;;;;;;;5120368;28;20192;-64
2021/08/19 02:01:43;;;;;;;5.13;1.87;;;;;;;;;;5120265;28;20585;-64
2021/08/19 02:04:12;;;;;;;3.37;1.60;;;;;;;;;;5120502;28;20273;-64
2021/08/19 02:06:40;;;;;;;2.47;1.70;;;;;;;;;;5120564;27;20199;-64
2021/08/19 02:09:08;;;;;;;2.47;1.70;;;;;;;;;;5120653;27;20284;-64
2021/08/19 02:11:38;;;;;;;3.60;1.80;;;;;;;;;;5119341;28;20211;-64
2021/08/19 02:14:06;;;;;;;3.10;1.97;;;;;;;;;;5120246;28;20725;-64
2021/08/19 02:16:34;;;;;;;2.03;1.70;;;;;;;;;;5120117;28;20211;-64
2021/08/19 02:19:03;;;;;;;1.70;1.60;;;;;;;;;;5120053;28;20296;-64
2021/08/19 02:21:32;;;;;;;2.37;1.57;;;;;;;;;;5120444;28;20209;-64
2021/08/19 02:24:00;;;;;;;1.57;1.47;;;;;;;;;;5120165;28;20589;-64
2021/08/19 02:26:28;;;;;;;2.93;1.70;;;;;;;;;;5104245;28;20202;-64
2021/08/19 02:28:56;;;;;;;1.40;1.30;;;;;;;;;;5099968;28;20284;-64
2021/08/19 02:31:24;;;;;;;1.63;1.53;;;;;;;;;;5099861;28;20219;-64
2021/08/19 02:33:52;;;;;;;2.10;1.37;;;;;;;;;;5099744;28;20328;-64
2021/08/19 02:36:19;;;;;;;3.00;1.30;;;;;;;;;;5099839;28;20289;-64
2021/08/19 02:38:49;;;;;;;2.30;1.47;;;;;;;;;;5099663;28;20205;-64
2021/08/19 02:41:17;;;;;;;1.47;1.37;;;;;;;;;;5099395;28;20205;-64
2021/08/19 02:43:45;;;;;;;2.13;1.70;;;;;;;;;;5099079;28;20689;-64
2021/08/19 02:46:13;;;;;;;3.50;1.70;;;;;;;;;;5099568;28;20285;-64
2021/08/19 02:48:41;;;;;;;2.20;1.43;;;;;;;;;;5099330;28;20255;-64
2021/08/19 02:51:09;;;;;;;1.50;1.40;;;;;;;;;;5099190;28;20207;-64
2021/08/19 02:53:37;;;;;;;2.53;1.73;;;;;;;;;;5099340;28;20201;-64
2021/08/19 02:56:07;;;;;;;2.07;1.57;;;;;;;;;;5099442;28;20216;-64
2021/08/19 02:58:34;;;;;;;2.23;1.93;;;;;;;;;;5099105;28;20201;-64
2021/08/19 03:01:02;;;;;;;1.70;1.60;;;;;;;;;;5106058;28;20568;-65
2021/08/19 03:03:31;;;;;;;1.83;1.50;;;;;;;;;;5119394;28;20229;-64
2021/08/19 03:05:59;;;;;;;1.63;1.53;;;;;;;;;;5119727;28;20236;-64
2021/08/19 03:08:27;;;;;;;2.63;1.60;;;;;;;;;;5119717;28;20209;-64
2021/08/19 03:10:55;;;;;;;2.07;1.23;;;;;;;;;;5119650;28;20210;-64
2021/08/19 03:13:24;;;;;;;1.63;1.50;;;;;;;;;;5119004;28;20227;-64
2021/08/19 03:15:52;;;;;;;2.03;1.50;;;;;;;;;;5119477;28;20213;-64
2021/08/19 03:18:20;;;;;;;3.03;1.60;;;;;;;;;;5119329;28;20201;-64
2021/08/19 03:20:48;;;;;;;5.03;2.07;;;;;;;;;;5119255;28;20240;-64
2021/08/19 03:23:16;;;;;;;3.23;1.90;;;;;;;;;;5118978;28;20229;-64
2021/08/19 03:25:44;;;;;;;2.77;1.70;;;;;;;;;;5108483;28;20230;-64
2021/08/19 03:28:13;;;;;;;1.73;1.63;;;;;;;;;;5098380;28;20664;-64
2021/08/19 03:30:43;;;;;;;2.03;1.70;;;;;;;;;;5098653;28;20205;-64
2021/08/19 03:33:11;;;;;;;2.93;1.50;;;;;;;;;;5098736;28;20206;-64
2021/08/19 03:35:39;;;;;;;2.63;1.40;;;;;;;;;;5098781;28;20229;-64
2021/08/19 03:38:08;;;;;;;1.13;1.03;;;;;;;;;;5098716;28;20287;-64
2021/08/19 03:40:36;;;;;;;1.60;1.50;;;;;;;;;;5098728;28;20209;-64
2021/08/19 03:43:04;;;;;;;2.23;1.40;;;;;;;;;;5098240;28;20590;-64
2021/08/19 03:45:32;;;;;;;2.10;1.70;;;;;;;;;;5098259;28;20233;-64
2021/08/19 03:48:01;;;;;;;2.33;1.43;;;;;;;;;;5098313;28;20292;-64
2021/08/19 03:50:29;;;;;;;1.80;1.70;;;;;;;;;;5098380;28;20656;-64
2021/08/19 03:52:57;;;;;;;1.40;1.30;;;;;;;;;;5098451;28;20205;-64
2021/08/19 03:55:25;;;;;;;2.73;1.50;;;;;;;;;;5098338;28;20229;-64
2021/08/19 03:57:53;;;;;;;2.83;1.30;;;;;;;;;;5098067;28;20296;-64
2021/08/19 04:00:21;;;;;;;3.53;1.87;;;;;;;;;;5098040;28;20567;-64
2021/08/19 04:02:49;;;;;;;1.60;1.47;;;;;;;;;;5097951;28;20244;-64
2021/08/19 04:05:20;;;;;;;3.60;1.70;;;;;;;;;;5097979;28;20383;-64
2021/08/19 04:07:48;;;;;;;2.03;1.60;;;;;;;;;;5098191;28;20251;-64
2021/08/19 04:10:18;;;;;;;2.10;1.90;;;;;;;;;;5097894;28;20206;-64
2021/08/19 04:12:49;;;;;;;1.70;1.47;;;;;;;;;;5097921;28;20205;-64
2021/08/19 04:15:19;;;;;;;2.40;1.70;;;;;;;;;;5098142;28;20236;-64
2021/08/19 04:17:48;;;;;;;1.43;1.33;;;;;;;;;;5109581;28;20201;-64
2021/08/19 04:20:16;;;;;;;2.73;2.03;;;;;;;;;;5118015;28;20601;-64
2021/08/19 04:22:45;;;;;;;2.97;1.40;;;;;;;;;;5118434;28;20224;-64
2021/08/19 04:25:13;;;;;;;2.50;1.60;;;;;;;;;;5112649;28;20264;-64
2021/08/19 04:27:41;;;;;;;1.57;1.47;;;;;;;;;;5097846;28;20205;-64
2021/08/19 04:30:10;;;;;;;1.47;1.30;;;;;;;;;;5097759;28;20289;-64
2021/08/19 04:32:38;;;;;;;2.47;1.80;;;;;;;;;;5097939;28;20206;-64
2021/08/19 04:35:06;;;;;;;1.80;1.70;;;;;;;;;;5097013;28;20229;-64
2021/08/19 04:37:35;;;;;;;2.37;1.73;;;;;;;;;;5097955;28;20215;-64
2021/08/19 04:40:05;;;;;;;2.07;1.50;;;;;;;;;;5097688;28;20212;-64
2021/08/19 04:42:33;;;;;;;2.37;1.73;;;;;;;;;;5097198;28;20238;-64
2021/08/19 04:45:01;;;;;;;1.90;1.43;;;;;;;;;;5097791;28;20229;-64
2021/08/19 04:47:29;;;;;;;2.23;1.80;;;;;;;;;;5097547;28;20209;-64
2021/08/19 04:49:57;;;;;;;2.60;1.70;;;;;;;;;;5097878;28;20213;-64
2021/08/19 04:52:24;;;;;;;2.40;1.90;;;;;;;;;;5097748;28;20212;-64
2021/08/19 04:54:52;;;;;;;1.97;1.70;;;;;;;;;;5097504;28;20228;-64
2021/08/19 04:57:22;;;;;;;2.17;1.97;;;;;;;;;;5097356;28;20201;-64
2021/08/19 04:59:50;;;;;;;3.83;1.90;;;;;;;;;;5097423;28;20205;-64
2021/08/19 05:02:18;;;;;;;2.27;2.03;;;;;;;;;;5097319;28;20644;-64
2021/08/19 05:04:46;;;;;;;2.03;1.93;;;;;;;;;;5097542;28;20229;-64
2021/08/19 05:07:14;;;;;;;4.20;1.63;;;;;;;;;;5097801;28;20211;-64
2021/08/19 05:09:42;;;;;;;2.30;1.87;;;;;;;;;;5097681;28;20201;-64
2021/08/19 05:12:10;;;;;;;2.20;2.00;;;;;;;;;;5097391;28;20205;-64
2021/08/19 05:14:40;;;;;;;4.80;1.90;;;;;;;;;;5097586;28;20222;-64
2021/08/19 05:17:08;;;;;;;3.97;1.90;;;;;;;;;;5104178;28;20681;-64
2021/08/19 05:19:35;;;;;;;4.03;1.67;;;;;;;;;;5117518;28;20232;-64
2021/08/19 05:22:04;;;;;;;2.57;1.80;;;;;;;;;;5117508;28;20208;-64
2021/08/19 05:24:32;;;;;;;2.07;1.90;;;;;;;;;;5117119;28;20225;-64
2021/08/19 05:26:59;;;;;;;2.00;1.77;;;;;;;;;;5097310;28;20658;-64
2021/08/19 05:29:27;;;;;;;2.53;1.80;;;;;;;;;;5097140;28;20212;-64
2021/08/19 05:31:57;;;;;;;4.17;1.97;;;;;;;;;;5097415;28;20210;-63
2021/08/19 05:34:25;;;;;;;1.47;1.37;;;;;;;;;;5096986;28;20252;-65
2021/08/19 05:36:53;;;;;;;2.27;1.87;;;;;;;;;;5097522;28;20202;-65
2021/08/19 05:39:21;;;;;;;4.77;2.10;;;;;;;;;;5097273;28;20212;-65
2021/08/19 05:41:49;;;;;;;2.30;1.83;;;;;;;;;;5097334;28;20369;-65
2021/08/19 05:44:16;;;;;;;4.00;2.23;;;;;;;;;;5096874;28;20239;-65
2021/08/19 05:46:44;;;;;;;5.80;1.77;;;;;;;;;;5098459;28;20212;-63
2021/08/19 05:49:15;;;;;;;3.70;1.93;;;;;;;;;;5100740;28;20292;-64
2021/08/19 05:51:43;;;;;;;4.07;1.73;;;;;;;;;;5100926;28;20211;-65
2021/08/19 05:54:11;;;;;;;2.80;1.70;;;;;;;;;;5100803;28;20867;-65
2021/08/19 05:56:39;;;;;;;2.40;1.80;;;;;;;;;;5100815;28;20201;-63
2021/08/19 05:59:07;;;;;;;4.57;1.90;;;;;;;;;;5100251;28;20206;-63
2021/08/19 06:01:37;;;;;;;3.07;2.10;;;;;;;;;;5100769;28;20205;-65
2021/08/19 06:04:05;;;;;;;3.57;2.20;;;;;;;;;;5100496;28;20236;-66
2021/08/19 06:06:35;;;;;;;6.80;1.93;;;;;;;;;;5100481;28;20216;-66
2021/08/19 06:09:03;;;;;;;2.90;2.10;;;;;;;;;;5107283;28;20681;-66
2021/08/19 06:11:31;;;;;;;2.20;1.90;;;;;;;;;;5120892;28;20209;-66
2021/08/19 06:13:59;;;;;;;3.47;2.43;;;;;;;;;;5120614;28;20303;-65
2021/08/19 06:16:26;;;;;;;3.47;1.97;;;;;;;;;;5120302;28;20556;-65
2021/08/19 06:18:56;;;;;;;2.90;2.40;;;;;;;;;;5120326;28;20213;-66
2021/08/19 06:21:24;;;;;;;2.67;2.07;;;;;;;;;;5120492;28;20211;-64
2021/08/19 06:23:53;;;;;;;2.97;1.90;;;;;;;;;;5120484;28;20247;-63
2021/08/19 06:26:21;;;;;;;1.77;1.63;;;;;;;;;;5115376;28;20219;-66
2021/08/19 06:28:49;;;;;;;3.23;2.43;;;;;;;;;;5120335;28;20277;-65
2021/08/19 06:31:17;;;;;;;2.57;2.10;;;;;;;;;;5120042;27;20204;-65
2021/08/19 06:33:45;;;;;;;5.20;1.90;;;;;;;;;;5120038;28;20256;-64
2021/08/19 06:36:13;;;;;;;1.53;1.43;;;;;;;;;;5119937;28;20568;-65
2021/08/19 06:38:41;;;;;;;2.20;2.00;;;;;;;;;;5120198;28;20215;-65
2021/08/19 06:41:10;;;;;;;1.70;1.60;;;;;;;;;;5120045;27;20269;-63
2021/08/19 06:43:38;;;;;;;2.00;1.43;;;;;;;;;;5119957;28;20205;-63
2021/08/19 06:46:06;;;;;;;2.23;1.60;;;;;;;;;;5119587;28;20197;-64
2021/08/19 06:48:34;;;;;;;2.03;1.63;;;;;;;;;;5119841;28;20211;-64
2021/08/19 06:51:02;;;;;;;3.10;2.20;;;;;;;;;;5120109;28;20211;-65
2021/08/19 06:53:30;;;;;;;3.27;1.73;;;;;;;;;;5120073;28;20205;-65
2021/08/19 06:55:58;;;;;;;3.47;1.67;;;;;;;;;;5119879;27;20227;-65
2021/08/19 06:58:28;;;;;;;3.77;2.33;;;;;;;;;;5119135;28;20211;-63
2021/08/19 07:00:56;;;;;;;4.77;2.00;;;;;;;;;;5119901;28;20215;-65
2021/08/19 07:03:26;;;;;;;3.00;1.70;;;;;;;;;;5119697;28;20219;-63
2021/08/19 07:05:54;;;;;;;3.20;1.60;;;;;;;;;;5119589;28;20229;-63
2021/08/19 07:08:22;;;;;;;2.10;1.90;;;;;;;;;;5119490;28;20283;-63
2021/08/19 07:10:50;;;;;;;2.27;1.60;;;;;;;;;;5119620;28;20204;-64
2021/08/19 07:13:18;;;;;;;1.60;1.50;;;;;;;;;;5119375;28;20205;-66
2021/08/19 07:15:48;;;;;;;2.70;1.57;;;;;;;;;;5119380;28;20231;-65
2021/08/19 07:18:16;;;;;;;2.20;1.20;;;;;;;;;;5119417;27;20208;-65
2021/08/19 07:20:44;;;;;;;2.07;1.30;;;;;;;;;;5119300;27;20632;-65
2021/08/19 07:23:11;;;;;;;2.33;1.10;;;;;;;;;;5119202;28;20225;-66
2021/08/19 07:25:39;;;;;;;3.60;1.57;;;;;;;;;;5109425;28;20225;-65
2021/08/19 07:28:07;;;;;;;1.70;1.13;;;;;;;;;;5098437;28;20205;-65
2021/08/19 07:30:35;;;;;;;2.17;1.17;;;;;;;;;;5098580;28;20212;-65
2021/08/19 07:33:05;;;;;;;1.30;1.20;;;;;;;;;;5098769;28;20221;-64
2021/08/19 07:35:34;;;;;;;2.03;1.03;;;;;;;;;;5098616;28;20604;-63
2021/08/19 07:38:01;;;;;;;1.30;1.20;;;;;;;;;;5098854;28;20210;-64
2021/08/19 07:40:30;;;;;;;1.97;1.33;;;;;;;;;;5098715;28;20232;-65
2021/08/19 07:42:58;;;;;;;2.23;1.30;;;;;;;;;;5098407;28;20208;-66
2021/08/19 07:45:29;;;;;;;2.63;0.80;;;;;;;;;;5098519;28;20229;-65
2021/08/19 07:47:57;;;;;;;0.87;0.73;;;;;;;;;;5098517;28;20288;-64
2021/08/19 07:50:26;;;;;;;1.10;0.90;;;;;;;;;;5098067;28;20571;-64
2021/08/19 07:52:54;;;;;;;1.70;1.00;;;;;;;;;;5105101;28;20209;-64
2021/08/19 07:55:22;;;;;;;1.00;0.90;;;;;;;;;;5118393;28;20308;-64
2021/08/19 07:57:51;;;;;;;0.87;0.87;;;;;;;;;;5118760;28;20205;-65
2021/08/19 08:00:20;;;;;;;0.97;0.97;;;;;;;;;;5118643;28;20675;-65
2021/08/19 08:02:48;;;;;;;0.77;0.70;;;;;;;;;;5118492;28;20712;-66
2021/08/19 08:05:17;;;;;;;2.30;1.00;;;;;;;;;;5118029;28;20235;-65
2021/08/19 08:07:46;;;;;;;1.00;1.00;;;;;;;;;;5118718;28;20215;-66
2021/08/19 08:10:14;;;;;;;1.43;1.27;;;;;;;;;;5117895;28;20204;-63
2021/08/19 08:12:42;;;;;;;2.37;1.30;;;;;;;;;;5118033;28;20288;-63
2021/08/19 08:15:11;;;;;;;1.03;0.93;;;;;;;;;;5118424;28;20225;-64
2021/08/19 08:17:39;;;;;;;1.00;0.90;;;;;;;;;;5118037;28;20590;-63
2021/08/19 08:20:09;;;;;;;2.17;1.40;;;;;;;;;;5117957;28;20229;-64
2021/08/19 08:22:40;;;;;;;2.13;1.50;;;;;;;;;;5118156;28;20213;-63
2021/08/19 08:25:13;;;;;;;3.33;1.53;;;;;;;;;;5112522;28;20284;-65
2021/08/19 08:27:51;;;;;;;3.37;1.30;;;;;;;;;;5097474;28;20296;-63
2021/08/19 08:30:19;;;;;;;2.80;2.17;;;;;;;;;;5105465;28;20208;-66
2021/08/19 08:32:47;;;;;;;1.27;1.17;;;;;;;;;;5118259;28;20296;-65
2021/08/19 08:35:16;;;;;;;3.37;1.30;;;;;;;;;;5118044;28;20224;-63
2021/08/19 08:37:45;;;;;;;1.37;1.10;;;;;;;;;;5118251;28;20691;-64
2021/08/19 08:40:16;;;;;;;1.47;1.33;;;;;;;;;;5117962;28;20231;-64
2021/08/19 08:42:44;;;;;;;2.53;1.07;;;;;;;;;;5117818;28;20638;-64
2021/08/19 08:45:13;;;;;;;2.40;1.30;;;;;;;;;;5118123;28;20232;-64
2021/08/19 08:47:41;;;;;;;1.73;1.17;;;;;;;;;;5117653;28;20270;-63
2021/08/19 08:50:10;;;;;;;3.23;1.40;;;;;;;;;;5117872;28;20297;-63
2021/08/19 08:52:40;;;;;;;1.23;1.13;;;;;;;;;;5118144;28;20215;-64
2021/08/19 08:55:09;;;;;;;0.90;0.90;;;;;;;;;;5117837;28;20235;-64
2021/08/19 08:57:38;;;;;;;1.40;1.20;;;;;;;;;;5117982;28;20207;-64
2021/08/19 09:00:08;;;;;;;3.73;1.40;;;;;;;;;;5118078;28;20205;-63
2021/08/19 09:02:36;;;;;;;1.37;1.23;;;;;;;;;;5118064;28;20207;-64
2021/08/19 09:05:14;;;;;;;1.57;1.23;;;;;;;;;;5117523;28;20230;-64
2021/08/19 09:07:42;;;;;;;1.43;1.10;;;;;;;;;;5118102;28;20640;-65
2021/08/19 09:10:12;;;;;;;1.70;1.60;;;;;;;;;;5117896;28;20205;-65
2021/08/19 09:12:42;;;;;;;2.50;1.10;;;;;;;;;;5117520;28;20716;-65
2021/08/19 09:15:13;;;;;;;1.60;1.27;;;;;;;;;;5117685;28;20259;-63
2021/08/19 09:17:42;;;;;;;1.20;1.10;;;;;;;;;;5117854;28;20201;-66
2021/08/19 09:20:10;;;;;;;1.70;1.17;;;;;;;;;;5117840;28;20232;-65
2021/08/19 09:22:52;;;;;;;2.07;1.33;;;;;;;;;;5121848;28;20663;-63
2021/08/19 09:25:28;;;;;;;1.70;1.20;;;;;;;;;;5114290;28;20217;-63
2021/08/19 09:28:14;;;;;;;3.47;1.17;;;;;;;;;;5101034;28;20208;-63
2021/08/19 09:30:44;;;;;;;3.40;1.20;;;;;;;;;;5101065;28;20668;-63
2021/08/19 09:33:12;;;;;;;1.90;1.00;;;;;;;;;;5101190;28;20201;-63
2021/08/19 09:35:40;;;;;;;1.47;1.00;;;;;;;;;;5101084;28;20225;-63
2021/08/19 09:38:09;;;;;;;2.03;1.43;;;;;;;;;;5100916;28;20241;-63
2021/08/19 09:40:37;;;;;;;0.87;0.87;;;;;;;;;;5100945;28;20205;-63
2021/08/19 09:43:05;;;;;;;1.40;1.00;;;;;;;;;;5107352;28;20663;-64
2021/08/19 09:45:43;;;;;;;1.00;1.00;;;;;;;;;;5121225;28;20225;-63
2021/08/19 09:48:12;;;;;;;2.83;1.10;;;;;;;;;;5121195;27;20295;-63
2021/08/19 09:50:41;;;;;;;1.00;0.87;;;;;;;;;;5121383;27;20205;-64
2021/08/19 09:53:16;;;;;;;1.10;0.80;;;;;;;;;;5121301;28;20215;-64
2021/08/19 09:55:44;;;;;;;1.43;0.97;;;;;;;;;;5120929;27;20277;-64
2021/08/19 09:58:27;;;;;;;1.00;1.00;;;;;;;;;;5120941;28;20290;-64
2021/08/19 10:00:56;;;;;;;1.43;1.33;;;;;;;;;;5120618;27;20231;-64
2021/08/19 10:03:26;;;;;;;1.30;1.20;;;;;;;;;;5120297;28;20298;-64
2021/08/19 10:05:54;;;;;;;3.83;1.43;;;;;;;;;;5120411;28;20603;-63
2021/08/19 10:08:22;;;;;;;0.93;0.93;;;;;;;;;;5120687;27;20716;-63
2021/08/19 10:10:52;;;;;;;1.40;1.30;;;;;;;;;;5120204;28;20706;-64
2021/08/19 10:13:20;;;;;;;1.47;1.37;;;;;;;;;;5120004;28;20227;-64
2021/08/19 10:15:48;;;;;;;12.77;6.87;;;;;;;;;;5120114;28;20204;-63
2021/08/19 10:18:20;;;;;;;2.10;1.67;;;;;;;;;;5120156;28;20265;-64
2021/08/19 10:20:49;;;;;;;1.10;1.00;;;;;;;;;;5120054;28;20336;-64
2021/08/19 10:23:17;;;;;;;1.27;0.97;;;;;;;;;;5119886;28;20213;-63
2021/08/19 10:25:48;;;;;;;1.80;0.90;;;;;;;;;;5110131;28;20232;-64
2021/08/19 10:28:17;;;;;;;3.13;1.10;;;;;;;;;;5099669;28;20210;-64
2021/08/19 10:30:49;;;;;;;2.93;1.10;;;;;;;;;;5100039;28;20217;-64
2021/08/19 10:33:36;;;;;;;1.40;0.97;;;;;;;;;;5098958;28;20204;-64
2021/08/19 10:36:28;;;;;;;2.33;1.10;;;;;;;;;;5099703;28;20695;-64
2021/08/19 10:39:25;;;;;;;0.90;0.90;;;;;;;;;;5099263;28;20207;-63
2021/08/19 10:41:54;;;;;;;1.73;0.90;;;;;;;;;;5108829;28;20212;-64
2021/08/19 10:44:29;;;;;;;0.80;0.80;;;;;;;;;;5119865;28;20669;-64
2021/08/19 10:46:57;;;;;;;0.80;0.80;;;;;;;;;;5119503;28;20588;-64
2021/08/19 10:49:36;;;;;;;0.70;0.70;;;;;;;;;;5119683;28;20202;-64
2021/08/19 10:52:22;;;;;;;1.63;1.10;;;;;;;;;;5119544;28;20291;-63
2021/08/19 10:55:09;;;;;;;0.90;0.90;;;;;;;;;;5119540;27;20223;-64
2021/08/19 10:57:45;;;;;;;1.10;1.00;;;;;;;;;;5119295;28;20292;-63
2021/08/19 11:00:13;;;;;;;0.87;0.87;;;;;;;;;;5119412;28;20202;-63
2021/08/19 11:02:42;;;;;;;0.77;0.77;;;;;;;;;;5119254;28;20208;-62
2021/08/19 11:05:11;;;;;;;2.07;0.97;;;;;;;;;;5119250;28;20228;-65
2021/08/19 11:07:47;;;;;;;2.57;1.10;;;;;;;;;;5119285;28;20237;-62
2021/08/19 11:10:23;;;;;;;0.67;0.67;;;;;;;;;;5119122;28;20293;-62
2021/08/19 11:12:52;;;;;;;0.90;0.90;;;;;;;;;;5118982;28;20302;-63
2021/08/19 11:15:20;;;;;;;0.67;0.67;;;;;;;;;;5104097;27;20243;-64
2021/08/19 11:17:52;;;;;;;2.60;1.00;;;;;;;;;;5109742;28;20192;-65
2021/08/19 11:20:21;;;;;;;1.77;1.40;;;;;;;;;;5108325;28;20237;-64
2021/08/19 11:22:59;;;;;;;1.63;0.90;;;;;;;;;;5119262;27;20291;-65
2021/08/19 11:25:28;;;;;;;0.67;0.67;;;;;;;;;;5110698;28;20567;-64
2021/08/19 11:27:56;;;;;;;1.77;0.90;;;;;;;;;;5098462;28;20234;-64
2021/08/19 11:30:31;;;;;;;1.13;1.10;;;;;;;;;;5098887;28;20294;-65
2021/08/19 11:33:11;;;;;;;1.03;0.93;;;;;;;;;;5103099;28;20661;-65
2021/08/19 11:35:40;;;;;;;0.83;0.83;;;;;;;;;;5106485;28;20217;-63
2021/08/19 11:38:12;;;;;;;1.93;0.80;;;;;;;;;;5109971;28;20253;-63
2021/08/19 11:40:42;;;;;;;1.60;1.03;;;;;;;;;;5117893;28;20213;-65
2021/08/19 11:43:20;;;;;;;1.70;1.00;;;;;;;;;;5105137;28;20201;-63
2021/08/19 11:45:48;;;;;;;2.13;1.00;;;;;;;;;;5105697;28;20628;-64
2021/08/19 11:48:18;;;;;;;1.00;0.87;;;;;;;;;;5114803;28;20232;-64
2021/08/19 11:50:52;;;;;;;1.47;1.37;;;;;;;;;;5118664;28;20209;-64
2021/08/19 11:53:20;;;;;;;0.80;0.80;;;;;;;;;;5118775;28;20207;-62
2021/08/19 11:55:50;;;;;;;0.70;0.70;;;;;;;;;;5118402;28;20210;-61
2021/08/19 11:58:18;;;;;;;0.60;0.60;;;;;;;;;;5118577;28;20213;-61
2021/08/19 12:00:56;;;;;;;3.23;1.10;;;;;;;;;;5105448;28;20202;-62
2021/08/19 12:03:25;;;;;;;0.60;0.60;;;;;;;;;;5117615;28;20691;-62
2021/08/19 12:06:03;;;;;;;4.00;1.10;;;;;;;;;;5118353;28;20299;-62
2021/08/19 12:08:32;;;;;;;1.40;1.30;;;;;;;;;;5118244;28;20320;-62
2021/08/19 12:11:02;;;;;;;1.23;1.10;;;;;;;;;;5118541;28;20210;-62
2021/08/19 12:13:30;;;;;;;1.20;1.10;;;;;;;;;;5117852;28;20212;-62
2021/08/19 12:15:58;;;;;;;1.10;1.00;;;;;;;;;;5118484;28;20207;-62
2021/08/19 12:18:27;;;;;;;1.10;0.90;;;;;;;;;;5118379;28;20255;-62
2021/08/19 12:21:09;;;;;;;0.93;0.90;;;;;;;;;;5118117;28;20238;-62
2021/08/19 12:23:38;;;;;;;2.33;0.90;;;;;;;;;;5117754;28;20808;-64
2021/08/19 12:26:09;;;;;;;1.63;0.80;;;;;;;;;;5104804;28;20229;-62
2021/08/19 12:28:37;;;;;;;0.87;0.87;;;;;;;;;;5105168;28;20234;-62
2021/08/19 12:31:08;;;;;;;2.13;1.33;;;;;;;;;;5118189;28;20211;-62
2021/08/19 12:33:37;;;;;;;3.97;0.93;;;;;;;;;;5118214;28;20668;-62
2021/08/19 12:36:16;;;;;;;1.27;0.90;;;;;;;;;;5118036;28;20205;-62
2021/08/19 12:38:45;;;;;;;1.00;0.80;;;;;;;;;;5118323;28;20209;-62
2021/08/19 12:41:19;;;;;;;0.90;0.90;;;;;;;;;;5117594;28;20209;-63
2021/08/19 12:43:47;;;;;;;1.97;0.87;;;;;;;;;;5110303;28;20217;-63
2021/08/19 12:46:15;;;;;;;1.00;1.00;;;;;;;;;;5106274;28;20285;-62
2021/08/19 12:48:44;;;;;;;0.97;0.87;;;;;;;;;;5106720;28;20217;-63
2021/08/19 12:51:19;;;;;;;0.90;0.90;;;;;;;;;;5107921;28;20199;-63
2021/08/19 12:54:06;;;;;;;1.00;0.90;;;;;;;;;;5108779;28;20229;-64
2021/08/19 12:56:38;;;;;;;2.67;1.10;;;;;;;;;;5110839;28;20208;-63
2021/08/19 12:59:06;;;;;;;1.30;1.20;;;;;;;;;;5114210;28;20233;-64
2021/08/19 13:01:35;;;;;;;2.30;1.10;;;;;;;;;;5122175;28;20212;-62
2021/08/19 13:04:04;;;;;;;1.80;1.23;;;;;;;;;;5121735;28;20235;-62
2021/08/19 13:06:33;;;;;;;1.00;1.00;;;;;;;;;;5121823;28;20209;-62
2021/08/19 13:09:01;;;;;;;1.17;1.17;;;;;;;;;;5121844;28;20236;-62
2021/08/19 13:11:29;;;;;;;1.00;0.93;;;;;;;;;;5121405;28;20210;-61
2021/08/19 13:13:58;;;;;;;2.00;0.90;;;;;;;;;;5121600;28;20234;-65
2021/08/19 13:16:26;;;;;;;1.27;1.17;;;;;;;;;;5121222;28;20200;-65
2021/08/19 13:18:54;;;;;;;2.40;1.30;;;;;;;;;;5120218;28;20652;-63
2021/08/19 13:21:22;;;;;;;1.40;1.30;;;;;;;;;;5109094;28;20239;-63
2021/08/19 13:23:50;;;;;;;1.17;1.07;;;;;;;;;;5107233;28;20218;-62
2021/08/19 13:26:18;;;;;;;1.00;1.00;;;;;;;;;;5109725;28;20287;-63
2021/08/19 13:28:46;;;;;;;0.93;0.67;;;;;;;;;;5107829;28;20223;-62
2021/08/19 13:31:15;;;;;;;2.67;1.33;;;;;;;;;;5109498;28;20203;-62
2021/08/19 13:33:43;;;;;;;4.50;1.20;;;;;;;;;;5104143;28;20219;-63
2021/08/19 13:36:12;;;;;;;0.90;0.90;;;;;;;;;;5110151;28;20294;-63
2021/08/19 13:38:40;;;;;;;1.67;1.20;;;;;;;;;;5109049;28;20200;-63
2021/08/19 13:41:08;;;;;;;6.43;1.20;;;;;;;;;;5108688;28;20221;-64
2021/08/19 13:43:36;;;;;;;1.40;1.30;;;;;;;;;;5107124;28;20199;-64
2021/08/19 13:46:05;;;;;;;1.30;1.10;;;;;;;;;;5106207;28;20194;-65
2021/08/19 13:48:35;;;;;;;1.70;1.57;;;;;;;;;;5107700;28;20217;-65
2021/08/19 13:51:03;;;;;;;1.20;1.00;;;;;;;;;;5108849;28;20201;-65
2021/08/19 13:53:31;;;;;;;2.40;1.27;;;;;;;;;;5108643;28;20753;-62
2021/08/19 13:55:59;;;;;;;1.23;1.13;;;;;;;;;;5106339;28;20240;-63
2021/08/19 13:58:27;;;;;;;1.00;1.00;;;;;;;;;;5108608;28;20203;-62
2021/08/19 14:00:54;;;;;;;1.50;1.20;;;;;;;;;;5107747;28;20677;-62
2021/08/19 14:03:23;;;;;;;1.07;0.90;;;;;;;;;;5108376;28;20205;-62
2021/08/19 14:05:52;;;;;;;0.90;0.90;;;;;;;;;;5107465;28;20204;-64
2021/08/19 14:08:20;;;;;;;2.63;1.10;;;;;;;;;;5107443;28;20318;-62
2021/08/19 14:10:48;;;;;;;1.43;1.10;;;;;;;;;;5106672;28;20206;-65
2021/08/19 14:13:19;;;;;;;3.90;1.20;;;;;;;;;;5120370;28;20712;-63
2021/08/19 14:15:47;;;;;;;1.73;1.63;;;;;;;;;;5117192;28;20236;-63
2021/08/19 14:18:15;;;;;;;1.97;1.70;;;;;;;;;;5120517;28;20190;-63
2021/08/19 14:20:43;;;;;;;1.13;1.03;;;;;;;;;;5120105;28;20655;-63
2021/08/19 14:23:12;;;;;;;0.97;0.97;;;;;;;;;;5120322;28;20203;-63
2021/08/19 14:25:40;;;;;;;2.37;1.60;;;;;;;;;;5110181;28;20566;-64
2021/08/19 14:28:08;;;;;;;1.20;1.10;;;;;;;;;;5116615;28;20194;-63
2021/08/19 14:30:36;;;;;;;1.20;1.10;;;;;;;;;;5119935;28;20567;-63
2021/08/19 14:33:04;;;;;;;1.47;1.37;;;;;;;;;;5113607;28;20560;-62
2021/08/19 14:35:32;;;;;;;1.87;1.77;;;;;;;;;;5107271;28;20217;-62
2021/08/19 14:38:01;;;;;;;3.80;2.17;;;;;;;;;;5111970;28;20209;-62
2021/08/19 14:40:31;;;;;;;2.17;1.37;;;;;;;;;;5106547;28;20197;-62
2021/08/19 14:42:59;;;;;;;1.30;1.20;;;;;;;;;;5106451;28;20570;-62
2021/08/19 14:45:27;;;;;;;2.03;1.30;;;;;;;;;;5106419;28;20223;-62
2021/08/19 14:47:55;;;;;;;1.10;1.10;;;;;;;;;;5106283;28;20289;-63
2021/08/19 14:50:23;;;;;;;1.20;1.10;;;;;;;;;;5107321;28;20692;-63
2021/08/19 14:52:51;;;;;;;1.87;1.50;;;;;;;;;;5105192;28;20212;-62
2021/08/19 14:55:18;;;;;;;1.20;1.10;;;;;;;;;;5103514;28;20601;-62